Terminal Aerodrome Forecast
Issued by NWS Charleston, WV

Current Version | Previous Version | Graphics & Text | Print | Product List | Glossary On
Versions: 1 2 3 4 5 6 7 8 9 10 11 12 13 14 15 16 17 18 19 20 21 22 23 24 25
613
FTUS41 KRLX 300857 AAA
TAFHTS
TAF AMD
KHTS 300857Z 3009/0106 16004KT P6SM SCT200
     FM301500 20009G20KT P6SM FEW060
     FM302300 18007KT P6SM FEW200=

USA.gov is the U.S. government's official web portal to all federal, state and local government web resources and services.